Summerville, Pennsylvania
Current Conditions -  °F | °C
As of 5:53 AM on Saturday 25 Oct 2014 (Local Time) from KDUJ Reporting Station
Few Clouds Few Clouds  
Wind Chill: 42°   Ceiling: Unl
Heat Index: 42°   Visibility: 10mi
Dew Point: 38°   Wind: 3mph
Humidity: 85%   Direction: 220°SW
Pressure: 29.92"   Gusts: NA
Location:  41.12°N, 79.19°W
Report Text: KDUJ 250953Z AUTO 22003KT 10SM FEW040 06/03 A2992 RMK AO2 SLP134 T00560033 $
Loading
Personal Weather Stations






























Interactive Weather Map
Tropical Storm Tracking
New forecast layout! Learn more

10-Day Weather Forecast

Advertisements
Track Severe Weather on mobile